Terminal Aerodrome Forecast
Issued by NWS

Home | Current Version | Previous Version | Text Only | Print | Product List | Glossary On
Versions: 1 2 3 4 5 6 7 8 9 10 11 12
000
FTUS46 KSGX 061724
TAFSNA
TAF
KSNA 061724Z 0618/0718 03005KT P6SM SKC
     FM062200 29011KT P6SM SKC
     FM070300 VRB03KT P6SM SKC
     FM071200 04006KT P6SM SKC=

USA.gov is the U.S. government's official web portal to all federal, state and local government web resources and services.